TimeEST,TemperatureF,Dew PointF,Humidity,Sea Level PressureIn,VisibilityMPH,Wind Direction,Wind SpeedMPH,Gust SpeedMPH,PrecipitationIn,Events,Conditions,WindDirDegrees,DateUTC
12:04 AM,55.9,46.0,69,30.15,10.0,NNW,9.2,21.9,N/A,,Mostly Cloudy,340,2013-01-18 05:04:00
12:53 AM,55.0,45.0,69,30.16,10.0,North,15.0,24.2,N/A,,Overcast,350,2013-01-18 05:53:00
1:53 AM,54.0,45.0,72,30.17,10.0,North,12.7,-,N/A,,Overcast,360,2013-01-18 06:53:00
2:53 AM,54.0,45.0,72,30.17,10.0,North,17.3,-,N/A,,Overcast,360,2013-01-18 07:53:00
3:53 AM,52.0,44.1,74,30.18,10.0,NNE,12.7,23.0,N/A,,Overcast,20,2013-01-18 08:53:00
4:19 AM,52.0,45.0,77,30.19,10.0,NNE,17.3,-,N/A,,Scattered Clouds,30,2013-01-18 09:19:00
4:53 AM,50.0,44.1,80,30.20,10.0,NNE,17.3,-,N/A,,Clear,30,2013-01-18 09:53:00
5:53 AM,48.9,42.1,77,30.23,10.0,NNE,21.9,28.8,N/A,,Clear,30,2013-01-18 10:53:00
7:53 AM,48.0,41.0,77,30.28,10.0,NE,20.7,27.6,N/A,,Scattered Clouds,40,2013-01-18 12:53:00
8:06 AM,48.0,41.0,77,30.30,10.0,ENE,25.3,32.2,N/A,,Mostly Cloudy,60,2013-01-18 13:06:00
8:53 AM,48.0,39.9,74,30.30,10.0,NE,13.8,-,N/A,,Overcast,50,2013-01-18 13:53:00
9:53 AM,51.1,43.0,74,30.31,10.0,ENE,12.7,-,N/A,,Overcast,60,2013-01-18 14:53:00
10:53 AM,53.1,43.0,69,30.31,10.0,NE,10.4,-,N/A,,Mostly Cloudy,50,2013-01-18 15:53:00
11:53 AM,55.9,46.0,69,30.29,10.0,NNE,13.8,-,N/A,,Overcast,30,2013-01-18 16:53:00
12:53 PM,57.9,46.9,67,30.26,10.0,NE,10.4,-,N/A,,Partly Cloudy,50,2013-01-18 17:53:00
1:53 PM,61.0,48.9,64,30.24,10.0,NE,13.8,-,N/A,,Partly Cloudy,50,2013-01-18 18:53:00
2:53 PM,63.0,52.0,67,30.23,10.0,NE,18.4,-,N/A,,Overcast,50,2013-01-18 19:53:00
3:53 PM,62.1,55.0,78,30.23,10.0,ENE,17.3,-,N/A,,Overcast,60,2013-01-18 20:53:00
4:53 PM,63.0,55.0,75,30.24,10.0,ENE,12.7,-,N/A,,Overcast,70,2013-01-18 21:53:00
5:13 PM,63.0,55.0,75,30.24,10.0,ENE,15.0,-,N/A,,Overcast,60,2013-01-18 22:13:00
5:21 PM,63.0,55.0,75,30.24,10.0,ENE,12.7,-,N/A,,Overcast,60,2013-01-18 22:21:00
5:53 PM,64.0,55.9,75,30.25,10.0,ENE,16.1,-,N/A,,Overcast,60,2013-01-18 22:53:00
6:53 PM,64.9,57.0,75,30.26,10.0,ENE,19.6,26.5,N/A,,Overcast,70,2013-01-18 23:53:00
7:05 PM,64.9,55.9,73,30.26,10.0,ENE,19.6,-,N/A,,Overcast,70,2013-01-19 00:05:00
7:53 PM,64.0,54.0,70,30.27,10.0,NE,17.3,-,N/A,,Overcast,50,2013-01-19 00:53:00
8:02 PM,64.0,55.0,73,30.27,10.0,NE,17.3,-,N/A,,Overcast,50,2013-01-19 01:02:00
8:36 PM,63.0,54.0,72,30.28,10.0,NE,17.3,-,N/A,,Overcast,40,2013-01-19 01:36:00
8:53 PM,63.0,53.1,70,30.29,10.0,ENE,19.6,-,N/A,,Overcast,60,2013-01-19 01:53:00
9:09 PM,63.0,53.1,70,30.28,10.0,NE,17.3,-,N/A,,Overcast,50,2013-01-19 02:09:00
9:24 PM,63.0,53.1,70,30.29,10.0,ENE,20.7,28.8,N/A,,Overcast,60,2013-01-19 02:24:00
9:53 PM,62.1,52.0,70,30.28,10.0,NE,18.4,-,N/A,,Overcast,50,2013-01-19 02:53:00
10:14 PM,61.0,52.0,72,30.28,10.0,NE,16.1,-,N/A,,Overcast,50,2013-01-19 03:14:00
10:53 PM,61.0,52.0,72,30.29,10.0,NE,12.7,-,N/A,,Overcast,50,2013-01-19 03:53:00
11:31 PM,60.1,52.0,75,30.27,10.0,NNE,13.8,-,N/A,,Overcast,30,2013-01-19 04:31:00
11:53 PM,59.0,51.1,75,30.26,10.0,NNE,16.1,-,N/A,,Overcast,30,2013-01-19 04:53:00